Time;durP1;ratioP1;P1;durP2;ratioP2;P2;SDS_P1;SDS_P2;PMS_P1;PMS_P2;Temp;Humidity;BMP_temperature;BMP_pressure;BME280_temperature;BME280_humidity;BME280_pressure;Samples;Min_cycle;Max_cycle;Signal;HPM_P1;HPM_P2
2021/12/23 00:02:11;;;;;;;40.80;23.30;;;;;;;-6.34;83.57;100147.63;5013896;28;20233;-80
2021/12/23 00:04:38;;;;;;;37.93;23.23;;;;;;;-6.40;83.26;100131.56;5011550;28;20362;-80
2021/12/23 00:07:09;;;;;;;36.00;23.40;;;;;;;-6.36;83.37;100144.28;5013969;28;20223;-80
2021/12/23 00:10:09;;;;;;;39.40;22.83;;;;;;;-6.42;83.50;100117.78;5015149;28;20241;-80
2021/12/23 00:12:29;;;;;;;39.63;23.63;;;;;;;-6.44;83.69;100114.44;5013023;28;20274;-81
2021/12/23 00:14:57;;;;;;;40.73;23.67;;;;;;;-6.38;83.71;100116.63;4996778;28;20572;-80
2021/12/23 00:17:51;;;;;;;39.47;23.20;;;;;;;-6.33;84.05;100120.63;4997623;28;20192;-79
2021/12/23 00:25:26;;;;;;;39.17;23.40;;;;;;;-6.46;83.82;100093.69;5014396;28;20208;-80
2021/12/23 00:28:10;;;;;;;38.43;23.27;;;;;;;-6.46;84.15;100091.06;4999316;28;20207;-80
2021/12/23 00:30:38;;;;;;;37.67;23.27;;;;;;;-6.37;83.81;100097.44;5011921;28;20231;-80
2021/12/23 00:33:06;;;;;;;37.00;22.77;;;;;;;-6.55;83.39;100067.38;5013726;28;20203;-79
2021/12/23 00:35:33;;;;;;;38.80;23.50;;;;;;;-6.43;83.90;100090.03;5013372;28;20299;-80
2021/12/23 00:38:06;;;;;;;36.27;22.53;;;;;;;-6.46;83.36;100085.03;5012365;28;20227;-79
2021/12/23 00:40:33;;;;;;;39.67;23.00;;;;;;;-6.46;83.46;100090.25;4997782;28;20299;-80
2021/12/23 00:43:00;;;;;;;43.30;23.77;;;;;;;-6.54;83.28;100088.16;5013468;28;20583;-80
2021/12/23 00:45:26;;;;;;;40.43;23.37;;;;;;;-6.50;83.19;100089.59;4992381;23;20644;-80
2021/12/23 00:47:53;;;;;;;39.17;23.17;;;;;;;-6.53;83.18;100078.56;4993416;28;20237;-80
2021/12/23 00:50:21;;;;;;;41.50;24.40;;;;;;;-6.59;83.27;100071.13;4979346;28;20287;-80
2021/12/23 00:52:59;;;;;;;38.30;21.60;;;;;;;-6.45;83.42;100084.94;5005102;23;20215;-81
2021/12/23 00:55:26;;;;;;;40.73;23.00;;;;;;;-6.60;83.39;100064.25;5013882;28;20191;-79
2021/12/23 00:57:53;;;;;;;42.17;24.50;;;;;;;-6.48;83.60;100077.28;5031187;28;20195;-80
2021/12/23 01:00:22;;;;;;;37.53;22.90;;;;;;;-6.53;83.59;100075.94;5015406;28;20221;-79
2021/12/23 01:02:49;;;;;;;38.97;22.47;;;;;;;-6.48;83.10;100081.66;5031590;28;20194;-80
2021/12/23 01:05:23;;;;;;;37.03;22.37;;;;;;;-6.45;83.22;100092.75;5032667;28;20230;-81
2021/12/23 01:07:50;;;;;;;36.43;22.30;;;;;;;-6.50;83.46;100078.34;5030243;28;20578;-80
2021/12/23 01:10:23;;;;;;;39.10;23.70;;;;;;;-6.53;83.43;100081.16;4997264;28;20230;-79
2021/12/23 01:13:04;;;;;;;41.20;22.73;;;;;;;-6.48;83.31;100097.31;5031394;28;20187;-80
2021/12/23 01:16:06;;;;;;;37.87;22.83;;;;;;;-6.53;83.23;100092.41;5031613;28;20195;-83
2021/12/23 01:18:54;;;;;;;36.43;22.00;;;;;;;-6.54;83.29;100089.91;5002231;28;20230;-81
2021/12/23 01:21:39;;;;;;;38.37;22.47;;;;;;;-6.58;83.52;100076.25;5031891;28;20233;-80
2021/12/23 01:24:10;;;;;;;36.10;22.10;;;;;;;-6.50;83.18;100076.56;5014147;28;20214;-80
2021/12/23 01:26:56;;;;;;;38.60;22.00;;;;;;;-6.49;83.01;100080.84;5032074;28;20234;-80
2021/12/23 01:29:23;;;;;;;37.43;22.50;;;;;;;-6.52;82.45;100069.78;5030074;28;20579;-81
2021/12/23 01:31:50;;;;;;;37.23;22.80;;;;;;;-6.64;82.64;100058.41;5030922;28;20233;-80
2021/12/23 01:34:23;;;;;;;39.07;22.93;;;;;;;-6.65;83.24;100063.69;5031006;28;20194;-80
2021/12/23 01:36:53;;;;;;;37.30;22.50;;;;;;;-6.69;83.06;100050.88;5032306;28;20229;-80
2021/12/23 01:39:40;;;;;;;39.17;22.57;;;;;;;-6.63;83.59;100048.81;5032073;23;20228;-80
2021/12/23 01:42:07;;;;;;;40.33;23.33;;;;;;;-6.69;83.36;100050.88;5011260;28;20190;-80
2021/12/23 01:44:34;;;;;;;39.07;22.90;;;;;;;-6.68;83.33;100049.13;5010488;28;20262;-80
2021/12/23 01:47:08;;;;;;;37.37;22.67;;;;;;;-6.61;83.23;100049.53;5010363;28;20254;-80
2021/12/23 01:49:35;;;;;;;39.90;22.97;;;;;;;-6.60;83.45;100046.84;5011100;28;20230;-80
2021/12/23 01:52:04;;;;;;;38.20;22.13;;;;;;;-6.81;83.38;100011.78;5008570;28;20234;-80
2021/12/23 01:54:31;;;;;;;35.73;22.60;;;;;;;-6.70;83.22;100027.53;5010333;28;20217;-80
2021/12/23 01:56:58;;;;;;;35.00;21.33;;;;;;;-6.62;82.94;100038.25;5010433;28;20188;-79
2021/12/23 01:59:29;;;;;;;38.17;22.10;;;;;;;-6.60;83.30;100036.41;5002939;23;20235;-79
2021/12/23 02:02:02;;;;;;;40.37;22.60;;;;;;;-6.56;83.47;100032.66;4960425;28;20212;-80
2021/12/23 02:04:50;;;;;;;39.83;23.47;;;;;;;-6.62;82.80;100037.47;4990983;28;20208;-80
2021/12/23 02:07:23;;;;;;;36.03;23.07;;;;;;;-6.60;82.69;100044.22;4974070;28;20239;-80
2021/12/23 02:09:52;;;;;;;37.20;23.13;;;;;;;-6.67;82.84;100015.13;4991577;28;20696;-79
2021/12/23 02:12:20;;;;;;;35.77;22.13;;;;;;;-6.63;82.87;100026.19;4991778;28;20195;-80
2021/12/23 02:14:46;;;;;;;41.13;22.60;;;;;;;-6.67;83.13;100035.97;4975505;28;20183;-80
2021/12/23 02:17:16;;;;;;;36.80;21.40;;;;;;;-6.69;82.93;100021.38;4992458;28;20200;-80
2021/12/23 02:19:46;;;;;;;36.73;22.43;;;;;;;-6.73;82.90;100017.31;4997779;23;20234;-79
2021/12/23 02:22:14;;;;;;;33.17;21.73;;;;;;;-6.71;83.01;100018.03;5008218;23;20235;-80
2021/12/23 02:24:42;;;;;;;37.87;22.43;;;;;;;-6.73;82.80;100012.09;4993771;28;20218;-81
2021/12/23 02:27:18;;;;;;;36.53;22.13;;;;;;;-6.73;82.83;100007.72;4992995;28;20231;-80
2021/12/23 02:29:52;;;;;;;35.23;21.27;;;;;;;-6.79;83.10;99989.88;4950414;29;20237;-80
2021/12/23 02:32:56;;;;;;;36.57;21.40;;;;;;;-6.69;83.29;100003.97;4952206;29;20621;-79
2021/12/23 02:35:24;;;;;;;33.90;22.07;;;;;;;-6.81;83.21;99990.94;4952722;29;20229;-80
2021/12/23 02:38:15;;;;;;;34.83;21.17;;;;;;;-6.79;82.96;99994.25;4955233;29;20237;-80
2021/12/23 02:40:44;;;;;;;36.33;22.37;;;;;;;-6.86;82.71;99996.41;4956603;29;20204;-80
2021/12/23 02:43:37;;;;;;;37.43;22.40;;;;;;;-6.92;82.85;99998.59;4954657;29;20241;-80
2021/12/23 02:46:05;;;;;;;32.30;20.93;;;;;;;-6.90;82.70;99999.31;4956649;29;20233;-80
2021/12/23 02:48:46;;;;;;;33.43;22.07;;;;;;;-6.92;82.69;99994.22;4965675;23;20230;-80
2021/12/23 02:51:16;;;;;;;37.07;23.13;;;;;;;-6.98;82.55;99975.56;4994216;28;20181;-80
2021/12/23 02:53:45;;;;;;;38.10;23.60;;;;;;;-7.02;83.22;99971.50;4995013;28;20231;-81
2021/12/23 02:56:15;;;;;;;43.17;24.27;;;;;;;-7.04;83.14;99968.97;4978147;28;20176;-81
2021/12/23 02:59:00;;;;;;;36.07;22.30;;;;;;;-7.01;83.36;99974.00;4994381;28;20234;-80
2021/12/23 03:01:30;;;;;;;40.33;22.73;;;;;;;-7.08;83.61;99971.88;4993816;28;20331;-81
2021/12/23 03:03:59;;;;;;;35.47;21.43;;;;;;;-7.01;83.43;99983.59;4994273;28;20196;-80
2021/12/23 03:06:26;;;;;;;35.17;22.00;;;;;;;-7.00;83.49;99982.66;4994126;28;20188;-80
2021/12/23 03:09:03;;;;;;;34.67;21.70;;;;;;;-7.06;82.81;99991.69;4993081;28;20216;-80
2021/12/23 03:11:45;;;;;;;40.00;22.00;;;;;;;-7.12;82.73;99981.66;4993550;28;20280;-79
2021/12/23 03:14:15;;;;;;;38.53;22.63;;;;;;;-7.20;82.72;99973.53;5000129;23;20244;-81
2021/12/23 03:16:58;;;;;;;35.40;21.57;;;;;;;-7.24;82.72;99977.25;4965165;28;20195;-80
2021/12/23 03:20:25;;;;;;;33.07;20.20;;;;;;;-7.22;82.83;99971.00;4979246;29;20260;-80
2021/12/23 03:22:57;;;;;;;36.47;21.87;;;;;;;-7.22;82.72;99968.41;4979635;29;20208;-80
2021/12/23 03:25:27;;;;;;;35.10;21.67;;;;;;;-7.25;82.81;99960.81;4978592;28;20212;-81
2021/12/23 03:27:56;;;;;;;33.40;21.23;;;;;;;-7.27;82.55;99956.63;5000507;23;20243;-80
2021/12/23 03:30:56;;;;;;;38.57;22.63;;;;;;;-7.28;82.63;99960.97;4999574;28;20212;-80
2021/12/23 03:34:06;;;;;;;39.73;22.57;;;;;;;-7.33;82.38;99938.81;4998787;28;20222;-80
2021/12/23 03:36:46;;;;;;;40.07;21.47;;;;;;;-7.46;82.30;99938.75;4999772;28;20176;-80
2021/12/23 03:39:53;;;;;;;34.43;21.27;;;;;;;-7.39;82.27;99937.44;4998381;28;20180;-82
2021/12/23 03:42:39;;;;;;;35.90;22.00;;;;;;;-7.41;82.24;99946.25;5017028;23;20235;-79
2021/12/23 03:45:54;;;;;;;39.70;21.80;;;;;;;-7.41;82.16;99952.28;5016459;28;20203;-81
2021/12/23 03:48:41;;;;;;;36.83;22.63;;;;;;;-7.51;81.94;99930.38;4974223;28;20196;-81
2021/12/23 03:51:22;;;;;;;43.43;23.57;;;;;;;-7.46;81.80;99937.91;4987933;23;20220;-80
2021/12/23 03:53:53;;;;;;;42.60;25.43;;;;;;;-7.46;81.72;99948.31;4967015;28;20240;-81
2021/12/23 03:56:26;;;;;;;41.43;24.47;;;;;;;-7.57;81.93;99926.44;5021559;23;20256;-80
2021/12/23 03:59:08;;;;;;;40.20;23.20;;;;;;;-7.45;81.70;99945.63;5026068;28;20184;-80
2021/12/23 04:01:48;;;;;;;35.43;21.50;;;;;;;-7.37;81.84;99958.16;5018885;28;20183;-81
2021/12/23 04:04:23;;;;;;;38.07;22.37;;;;;;;-7.57;81.44;99913.44;5033564;23;20232;-79
2021/12/23 04:06:53;;;;;;;38.13;22.40;;;;;;;-7.53;82.05;99915.81;5000465;28;20231;-81
2021/12/23 04:09:42;;;;;;;35.43;21.10;;;;;;;-7.41;81.77;99947.09;5021076;23;20224;-82
2021/12/23 04:12:48;;;;;;;39.00;21.57;;;;;;;-7.38;81.84;99946.91;4939733;29;20272;-80
2021/12/23 04:15:20;;;;;;;36.93;21.33;;;;;;;-7.41;81.58;99944.50;4934956;29;20583;-80
2021/12/23 04:17:55;;;;;;;37.33;21.87;;;;;;;-7.42;81.66;99939.41;4918161;29;20238;-81
2021/12/23 04:20:30;;;;;;;34.73;20.77;;;;;;;-7.40;81.68;99946.16;4934196;29;20232;-80
2021/12/23 04:23:09;;;;;;;37.90;21.80;;;;;;;-7.39;81.60;99939.19;4919747;29;20718;-80
2021/12/23 04:25:56;;;;;;;40.40;23.13;;;;;;;-7.50;81.59;99919.06;4933707;29;20241;-80
2021/12/23 04:28:27;;;;;;;36.37;22.27;;;;;;;-7.36;82.16;99926.81;4916852;29;20237;-81
2021/12/23 04:31:27;;;;;;;37.67;23.60;;;;;;;-7.41;82.11;99915.03;4933112;29;20229;-81
2021/12/23 04:34:02;;;;;;;39.13;24.10;;;;;;;-7.38;82.69;99925.25;4961143;29;20297;-80
2021/12/23 04:36:39;;;;;;;40.70;23.57;;;;;;;-7.38;82.91;99913.06;4968760;23;20246;-79
2021/12/23 04:39:06;;;;;;;39.83;23.63;;;;;;;-7.39;82.57;99903.59;4994722;28;20219;-81
2021/12/23 04:41:34;;;;;;;39.53;22.90;;;;;;;-7.36;83.14;99902.53;5009759;28;20200;-80
2021/12/23 04:44:07;;;;;;;36.80;21.70;;;;;;;-7.40;82.61;99893.28;5017052;23;20280;-82
2021/12/23 04:46:35;;;;;;;41.53;22.50;;;;;;;-7.37;82.46;99911.31;5009212;28;20270;-80
2021/12/23 04:49:04;;;;;;;37.67;22.50;;;;;;;-7.42;82.44;99892.56;5008012;28;20525;-80
2021/12/23 04:51:31;;;;;;;38.57;21.97;;;;;;;-7.44;82.06;99890.03;5007910;28;20219;-80
2021/12/23 04:53:59;;;;;;;35.73;22.17;;;;;;;-7.42;82.08;99897.75;5008410;28;20237;-80
2021/12/23 04:56:31;;;;;;;37.53;21.07;;;;;;;-7.42;82.09;99897.75;5011290;28;20223;-80
2021/12/23 04:58:58;;;;;;;40.53;22.13;;;;;;;-7.58;81.85;99882.28;5008969;28;20669;-81
2021/12/23 05:01:29;;;;;;;35.23;21.33;;;;;;;-7.41;81.82;99894.19;5010000;28;20235;-81
2021/12/23 05:04:04;;;;;;;35.00;21.17;;;;;;;-7.45;81.94;99890.13;5007029;28;20279;-80
2021/12/23 05:06:40;;;;;;;37.07;20.70;;;;;;;-7.59;81.44;99871.03;5008819;28;20237;-80
2021/12/23 05:09:08;;;;;;;35.20;21.03;;;;;;;-7.61;81.32;99872.94;5008501;28;20251;-80
2021/12/23 05:11:37;;;;;;;37.03;20.73;;;;;;;-7.55;81.48;99887.28;5011035;23;22265;-80
2021/12/23 05:14:10;;;;;;;35.50;21.40;;;;;;;-7.60;81.35;99877.19;4988862;28;20526;-82
2021/12/23 05:16:37;;;;;;;39.87;21.63;;;;;;;-7.46;81.88;99893.66;4988571;28;20228;-80
2021/12/23 05:19:05;;;;;;;33.87;21.03;;;;;;;-7.53;81.32;99876.78;4989721;28;20240;-80
2021/12/23 05:21:33;;;;;;;37.47;22.03;;;;;;;-7.48;81.67;99888.56;4987455;28;20263;-81
2021/12/23 05:24:06;;;;;;;35.70;21.77;;;;;;;-7.34;81.60;99892.88;4981729;23;20271;-80
2021/12/23 05:26:33;;;;;;;36.63;21.60;;;;;;;-7.38;81.20;99884.44;4974402;28;20200;-80
2021/12/23 05:29:01;;;;;;;34.90;21.00;;;;;;;-7.35;81.11;99880.78;4972036;28;20220;-81
2021/12/23 05:31:27;;;;;;;36.43;21.43;;;;;;;-7.42;81.15;99869.97;4988492;28;20220;-81
2021/12/23 05:33:54;;;;;;;35.33;21.30;;;;;;;-7.34;81.27;99875.50;4973533;28;20224;-80
2021/12/23 05:36:23;;;;;;;38.13;21.80;;;;;;;-7.31;81.30;99872.69;4990228;28;20172;-80
2021/12/23 05:38:50;;;;;;;36.13;21.87;;;;;;;-7.43;81.27;99857.03;4970582;28;20212;-80
2021/12/23 05:41:22;;;;;;;35.87;22.33;;;;;;;-7.33;81.22;99871.13;4971359;28;20240;-81
2021/12/23 05:43:49;;;;;;;34.70;21.30;;;;;;;-7.40;80.86;99857.66;4987821;28;20247;-80
2021/12/23 05:46:16;;;;;;;33.30;20.37;;;;;;;-7.39;81.38;99855.91;4970067;28;20232;-81
2021/12/23 05:48:43;;;;;;;36.07;20.63;;;;;;;-7.28;81.11;99875.06;4995211;23;20254;-84
2021/12/23 05:51:10;;;;;;;36.80;22.30;;;;;;;-7.32;80.94;99873.59;4985942;28;20243;-80
2021/12/23 05:53:39;;;;;;;36.67;21.60;;;;;;;-7.38;81.21;99862.78;4956847;28;20241;-80
2021/12/23 05:56:07;;;;;;;39.60;21.57;;;;;;;-7.32;81.03;99877.97;4971286;28;20223;-81
2021/12/23 05:58:37;;;;;;;36.73;20.97;;;;;;;-7.33;81.04;99868.53;4987044;28;20631;-80
2021/12/23 06:01:08;;;;;;;38.70;21.43;;;;;;;-7.30;81.05;99857.91;4971073;28;20196;-81
2021/12/23 06:03:36;;;;;;;37.73;21.10;;;;;;;-7.32;80.84;99862.34;4986821;28;20231;-81
2021/12/23 06:06:02;;;;;;;36.73;21.20;;;;;;;-7.38;81.05;99848.00;4990169;28;20212;-81
2021/12/23 06:08:29;;;;;;;36.03;20.73;;;;;;;-7.37;81.66;99854.03;4971367;28;20315;-81
2021/12/23 06:10:56;;;;;;;36.37;20.87;;;;;;;-7.36;81.87;99859.13;4987782;28;20236;-80
2021/12/23 06:13:23;;;;;;;39.23;22.00;;;;;;;-7.30;82.01;99873.50;4991260;28;20239;-80
2021/12/23 06:15:49;;;;;;;36.67;20.63;;;;;;;-7.34;81.49;99849.47;4991935;28;20254;-80
2021/12/23 06:18:16;;;;;;;34.50;20.87;;;;;;;-7.35;82.23;99837.38;4990960;28;20212;-81
2021/12/23 06:20:44;;;;;;;35.77;22.07;;;;;;;-7.23;82.37;99854.78;4989614;28;20287;-80
2021/12/23 06:23:12;;;;;;;36.00;22.03;;;;;;;-7.21;82.63;99850.31;4973703;28;20291;-80
2021/12/23 06:25:40;;;;;;;39.50;22.67;;;;;;;-7.25;82.77;99845.41;4992905;28;20216;-80
2021/12/23 06:28:11;;;;;;;35.17;22.20;;;;;;;-7.16;83.09;99855.22;4990525;28;20287;-80
2021/12/23 06:30:37;;;;;;;36.67;22.27;;;;;;;-7.09;82.41;99881.69;4990606;28;20227;-80
2021/12/23 06:33:05;;;;;;;35.17;21.17;;;;;;;-7.18;82.42;99857.06;4990121;28;20247;-82
2021/12/23 06:35:32;;;;;;;35.80;21.33;;;;;;;-7.08;82.10;99850.31;4991731;28;20335;-80
2021/12/23 06:38:08;;;;;;;36.27;21.33;;;;;;;-6.98;82.41;99847.94;4990287;28;20228;-80
2021/12/23 06:40:36;;;;;;;33.57;20.60;;;;;;;-6.98;82.59;99851.38;4991143;28;20310;-81
2021/12/23 06:43:04;;;;;;;38.83;22.57;;;;;;;-7.05;82.83;99831.91;4973551;28;20259;-81
2021/12/23 06:45:31;;;;;;;36.93;23.03;;;;;;;-6.95;83.16;99832.13;4990994;28;20228;-81
2021/12/23 06:47:58;;;;;;;39.43;23.37;;;;;;;-6.95;83.08;99830.31;4973944;28;20235;-81
2021/12/23 06:50:26;;;;;;;38.07;21.87;;;;;;;-6.87;82.95;99842.84;4989983;28;20323;-81
2021/12/23 06:52:54;;;;;;;37.90;22.40;;;;;;;-6.87;83.03;99842.84;4958087;28;20231;-80
2021/12/23 06:55:37;;;;;;;39.50;23.90;;;;;;;-6.77;83.18;99842.13;4977150;28;20219;-81
2021/12/23 06:58:04;;;;;;;39.20;22.77;;;;;;;-6.88;83.46;99805.53;4989141;28;20231;-80
2021/12/23 07:00:37;;;;;;;39.67;23.60;;;;;;;-6.73;83.53;99824.47;4974043;28;20247;-83
2021/12/23 07:03:04;;;;;;;41.83;23.83;;;;;;;-6.62;83.44;99840.19;4987828;28;20212;-82
2021/12/23 07:05:31;;;;;;;46.07;25.63;;;;;;;-6.61;83.30;99830.59;4991206;28;20227;-81
2021/12/23 07:08:12;;;;;;;43.30;25.87;;;;;;;-6.56;83.32;99847.59;4938921;28;20263;-80
2021/12/23 07:10:39;;;;;;;38.13;22.80;;;;;;;-6.46;82.60;99842.59;4972545;28;20231;-81
2021/12/23 07:13:07;;;;;;;37.57;22.57;;;;;;;-6.46;82.40;99832.16;4972347;28;20201;-80
2021/12/23 07:15:38;;;;;;;36.80;20.93;;;;;;;-6.34;82.64;99844.31;4990024;28;20694;-85
2021/12/23 07:18:18;;;;;;;36.97;21.17;;;;;;;-6.26;82.55;99850.69;4976093;28;20259;-80
2021/12/23 07:20:45;;;;;;;33.77;20.67;;;;;;;-6.28;82.10;99841.28;4986579;28;20527;-80
2021/12/23 07:23:16;;;;;;;35.33;21.03;;;;;;;-6.29;82.09;99821.34;4990687;28;20220;-81
2021/12/23 07:25:46;;;;;;;33.63;20.90;;;;;;;-6.13;82.03;99831.56;4978586;28;20263;-81
2021/12/23 07:28:13;;;;;;;34.47;21.27;;;;;;;-6.02;82.49;99857.72;4989878;28;20228;-81
2021/12/23 07:30:41;;;;;;;33.60;21.00;;;;;;;-5.96;81.68;99844.22;4971298;28;20647;-83
2021/12/23 07:33:12;;;;;;;35.43;21.37;;;;;;;-5.92;82.29;99823.00;4966815;28;20212;-81
2021/12/23 07:35:40;;;;;;;36.87;21.23;;;;;;;-5.78;82.82;99827.19;4951894;28;20232;-82
2021/12/23 07:38:11;;;;;;;36.00;21.97;;;;;;;-5.70;82.74;99834.47;4989267;28;20226;-82
2021/12/23 07:40:38;;;;;;;37.30;21.70;;;;;;;-5.64;81.97;99849.69;4988625;28;20197;-80
2021/12/23 07:43:10;;;;;;;35.63;21.47;;;;;;;-5.52;81.90;99838.34;4964224;28;20273;-81
2021/12/23 07:45:55;;;;;;;34.43;20.43;;;;;;;-5.40;81.93;99821.75;4981264;23;20227;-87
2021/12/23 07:48:22;;;;;;;33.00;20.93;;;;;;;-5.23;81.83;99839.66;4999407;28;20231;-89
2021/12/23 07:50:49;;;;;;;33.40;21.57;;;;;;;-5.19;81.03;99824.56;4978791;28;20310;-89
2021/12/23 07:53:21;;;;;;;35.00;20.27;;;;;;;-5.13;81.08;99831.94;4959727;28;20319;-87
2021/12/23 07:55:48;;;;;;;32.97;20.33;;;;;;;-5.01;80.51;99844.06;4977666;28;20228;-84
2021/12/23 07:58:14;;;;;;;33.27;21.10;;;;;;;-4.92;80.70;99839.00;4943587;28;20283;-90
2021/12/23 08:00:42;;;;;;;39.93;23.83;;;;;;;-4.83;80.29;99831.38;4971633;28;20306;-92
2021/12/23 08:03:09;;;;;;;39.70;25.80;;;;;;;-4.64;80.61;99837.72;4998049;28;20235;-86
2021/12/23 08:05:36;;;;;;;41.67;27.30;;;;;;;-4.57;79.90;99831.03;4982107;28;20706;-93
2021/12/23 08:08:05;;;;;;;42.40;28.87;;;;;;;-4.43;79.32;99829.97;4997821;28;20557;-87
2021/12/23 08:10:31;;;;;;;40.10;27.77;;;;;;;-4.37;79.69;99818.19;4982183;28;20295;-91
2021/12/23 08:12:58;;;;;;;36.70;24.87;;;;;;;-4.26;79.39;99831.28;4998202;28;20331;-87
2021/12/23 08:15:25;;;;;;;36.23;22.17;;;;;;;-4.14;79.45;99825.91;4998110;28;20227;-90
2021/12/23 08:17:52;;;;;;;35.73;22.77;;;;;;;-4.05;79.44;99803.38;4998764;28;20228;-89
2021/12/23 08:20:19;;;;;;;32.83;22.50;;;;;;;-3.92;78.84;99803.25;4965768;28;20227;-88
2021/12/23 08:22:47;;;;;;;33.40;22.00;;;;;;;-3.86;78.65;99794.88;4982717;28;20516;-90
2021/12/23 08:25:15;;;;;;;37.60;23.03;;;;;;;-3.82;78.75;99796.31;4982779;28;20250;-96
2021/12/23 08:27:43;;;;;;;32.17;21.93;;;;;;;-3.72;77.71;99797.22;4981910;28;20285;-89
2021/12/23 08:30:12;;;;;;;33.23;22.23;;;;;;;-3.65;78.40;99790.53;4980912;28;20235;-86
2021/12/23 08:32:40;;;;;;;36.47;23.17;;;;;;;-3.67;77.31;99774.94;4965479;28;20227;-94
2021/12/23 08:35:08;;;;;;;32.57;22.30;;;;;;;-3.47;77.82;99796.88;4980409;28;20584;-96
2021/12/23 08:37:47;;;;;;;38.27;23.57;;;;;;;-3.41;77.71;99796.38;4982448;28;20237;-88
2021/12/23 08:40:17;;;;;;;32.63;22.10;;;;;;;-3.30;77.92;99798.09;4980817;28;20601;-94
2021/12/23 08:42:44;;;;;;;34.43;22.20;;;;;;;-3.16;77.15;99803.03;4997636;28;20318;-85
2021/12/23 08:45:12;;;;;;;34.17;21.53;;;;;;;-3.08;76.90;99794.53;4981048;28;20235;-90
2021/12/23 08:47:39;;;;;;;35.13;21.80;;;;;;;-2.96;76.64;99790.88;4990354;28;20535;-91
2021/12/23 08:50:07;;;;;;;28.67;20.47;;;;;;;-2.87;76.02;99801.41;4961608;28;20267;-88
2021/12/23 08:52:34;;;;;;;34.03;21.73;;;;;;;-2.79;76.26;99800.75;4981473;28;20230;-90
2021/12/23 08:55:04;;;;;;;31.90;22.17;;;;;;;-2.70;76.08;99789.47;4981814;28;20235;-95
2021/12/23 08:57:31;;;;;;;32.87;22.13;;;;;;;-2.58;76.13;99791.03;4966673;28;20317;-87
2021/12/23 08:59:58;;;;;;;31.43;22.03;;;;;;;-2.48;75.60;99777.97;5005964;28;20227;-89
2021/12/23 09:02:46;;;;;;;34.07;23.03;;;;;;;-2.26;75.17;99777.75;5008079;28;20230;-80
2021/12/23 09:05:20;;;;;;;32.40;21.63;;;;;;;-2.16;75.46;99775.16;5013725;23;20226;-80
2021/12/23 09:07:53;;;;;;;31.37;22.20;;;;;;;-2.05;75.34;99780.28;4981767;23;20247;-80
2021/12/23 09:10:22;;;;;;;31.93;21.97;;;;;;;-1.91;75.02;99793.81;5016641;23;20219;-80
2021/12/23 09:12:54;;;;;;;33.27;21.60;;;;;;;-1.94;74.14;99767.84;4998761;23;20247;-80
2021/12/23 09:15:23;;;;;;;30.80;21.40;;;;;;;-1.78;74.00;99790.97;5060683;23;20232;-80
2021/12/23 09:17:51;;;;;;;34.60;22.83;;;;;;;-1.65;73.78;99788.88;5019679;23;20227;-80
2021/12/23 09:20:22;;;;;;;35.40;23.03;;;;;;;-1.58;73.38;99795.25;4994974;28;20223;-80
2021/12/23 09:22:56;;;;;;;32.53;22.53;;;;;;;-1.48;72.81;99779.47;5015212;23;20527;-80
2021/12/23 09:25:30;;;;;;;31.17;22.70;;;;;;;-1.35;72.26;99766.88;4995878;28;20223;-80
2021/12/23 09:28:26;;;;;;;30.03;20.63;;;;;;;-1.27;72.39;99767.00;5010088;28;20575;-80
2021/12/23 09:33:59;;;;;;;30.40;21.27;;;;;;;-1.26;71.39;99755.50;4983448;28;20235;-79
2021/12/23 09:36:26;;;;;;;30.13;21.13;;;;;;;-1.45;72.15;99737.16;4993986;28;20223;-80
2021/12/23 09:38:53;;;;;;;31.50;21.80;;;;;;;-1.32;71.80;99740.31;5009994;23;20227;-80
2021/12/23 09:41:24;;;;;;;31.90;22.70;;;;;;;-1.25;71.67;99730.03;5029766;23;20240;-79
2021/12/23 09:43:56;;;;;;;31.20;21.30;;;;;;;-1.16;72.05;99745.81;5019019;23;20242;-79
2021/12/23 09:46:39;;;;;;;31.07;21.77;;;;;;;-1.12;72.04;99736.66;4988633;28;20231;-79
2021/12/23 09:49:11;;;;;;;28.80;21.10;;;;;;;-1.09;71.20;99727.66;4978835;28;20215;-79
2021/12/23 09:51:43;;;;;;;33.20;22.17;;;;;;;-0.94;71.19;99731.50;5025444;23;20844;-79
2021/12/23 09:54:13;;;;;;;30.30;21.13;;;;;;;-0.89;69.90;99729.28;5009235;28;20235;-79
2021/12/23 09:56:42;;;;;;;32.40;21.60;;;;;;;-0.92;70.51;99711.97;4994916;28;20233;-79
2021/12/23 09:59:10;;;;;;;31.37;22.27;;;;;;;-0.83;70.75;99706.78;5018544;23;20237;-79
2021/12/23 10:01:40;;;;;;;29.83;21.23;;;;;;;-0.83;70.93;99715.50;4992795;28;20224;-79
2021/12/23 10:04:07;;;;;;;32.33;22.67;;;;;;;-0.80;71.47;99717.03;5011276;28;20532;-79
2021/12/23 10:06:34;;;;;;;32.47;22.10;;;;;;;-0.80;71.03;99696.84;5010816;28;20223;-79
2021/12/23 10:09:33;;;;;;;31.13;21.90;;;;;;;-0.85;70.66;99700.88;4993378;28;20216;-79
2021/12/23 10:13:01;;;;;;;32.13;22.33;;;;;;;-0.77;71.02;99704.44;5014467;23;20679;-78
2021/12/23 10:33:42;;;;;;;30.50;21.57;;;;;;;-0.95;73.53;99658.81;4987342;28;20254;-79
2021/12/23 10:39:37;;;;;;;30.40;21.77;;;;;;;-0.80;72.12;99651.28;4969953;29;20229;-79
2021/12/23 10:42:27;;;;;;;36.10;21.77;;;;;;;-0.71;73.18;99635.44;4968376;29;20255;-79
2021/12/23 10:45:11;;;;;;;30.73;22.50;;;;;;;-0.49;72.62;99634.19;4970421;28;20256;-79
2021/12/23 10:47:58;;;;;;;32.23;21.60;;;;;;;-0.41;72.10;99615.00;4966522;29;20225;-79
2021/12/23 10:50:39;;;;;;;34.73;22.40;;;;;;;-0.23;71.61;99627.19;4963862;29;20260;-79
2021/12/23 10:59:15;;;;;;;31.07;22.20;;;;;;;0.11;70.02;99627.31;5005101;23;20243;-79
2021/12/23 11:28:08;;;;;;;29.73;22.20;;;;;;;0.64;68.45;99605.25;5043747;28;20229;-80
2021/12/23 11:41:54;;;;;;;31.87;21.93;;;;;;;0.89;69.46;99535.81;5078612;28;20295;-80
2021/12/23 11:44:21;;;;;;;30.67;22.37;;;;;;;0.85;68.72;99524.75;5080566;28;20236;-80
2021/12/23 11:46:54;;;;;;;30.07;22.20;;;;;;;0.79;69.49;99522.75;5078963;28;20228;-80
2021/12/23 11:49:21;;;;;;;31.77;22.20;;;;;;;0.74;70.06;99516.31;5079168;28;20276;-80
2021/12/23 11:52:01;;;;;;;30.10;23.30;;;;;;;0.81;70.51;99514.69;5081719;28;20267;-80
2021/12/23 11:54:42;;;;;;;31.13;22.47;;;;;;;0.83;70.46;99518.00;5078710;28;20225;-80
2021/12/23 11:57:16;;;;;;;29.27;22.83;;;;;;;0.89;70.34;99514.69;5078525;28;20208;-80
2021/12/23 11:59:55;;;;;;;29.30;22.40;;;;;;;0.87;69.11;99509.59;5079661;28;20220;-80
2021/12/23 12:02:23;;;;;;;31.00;22.83;;;;;;;0.70;69.89;99501.81;5078720;28;20296;-81
2021/12/23 12:05:00;;;;;;;30.50;22.83;;;;;;;0.70;70.02;99515.00;5079572;28;20247;-80
2021/12/23 12:07:27;;;;;;;30.23;23.20;;;;;;;0.58;70.43;99500.44;5065552;28;20225;-80
2021/12/23 12:09:57;;;;;;;31.03;23.10;;;;;;;0.62;71.37;99505.22;5060572;28;20243;-80
2021/12/23 12:12:25;;;;;;;31.33;23.43;;;;;;;0.44;71.43;99476.31;5059416;28;20229;-80
2021/12/23 12:14:55;;;;;;;31.37;22.83;;;;;;;0.56;71.55;99481.31;5052768;28;20233;-80
2021/12/23 12:19:57;;;;;;;29.47;23.07;;;;;;;0.44;70.57;99471.06;5061058;28;20578;-80
2021/12/23 12:22:47;;;;;;;30.70;22.77;;;;;;;0.47;71.79;99484.91;5045751;28;20234;-80
2021/12/23 12:25:26;;;;;;;29.17;22.67;;;;;;;0.39;71.12;99475.97;5046421;28;20301;-80
2021/12/23 12:27:56;;;;;;;31.07;22.33;;;;;;;0.28;71.97;99481.50;5045098;28;20224;-80
2021/12/23 12:30:44;;;;;;;30.87;24.23;;;;;;;0.48;72.55;99476.81;5053470;23;20344;-80
2021/12/23 12:33:24;;;;;;;30.57;23.47;;;;;;;0.61;72.17;99476.38;5048668;28;20208;-80
2021/12/23 12:36:01;;;;;;;30.17;23.63;;;;;;;0.68;72.57;99472.13;5048303;28;20225;-80
2021/12/23 12:38:30;;;;;;;32.03;23.77;;;;;;;0.73;72.39;99469.84;5049670;28;20294;-80
2021/12/23 12:41:07;;;;;;;30.33;22.77;;;;;;;0.78;70.94;99452.53;5066405;28;20312;-80
2021/12/23 12:43:41;;;;;;;30.00;23.03;;;;;;;0.89;72.14;99452.22;5049125;28;20228;-80
2021/12/23 12:46:11;;;;;;;29.90;23.20;;;;;;;0.80;71.71;99444.44;5047854;28;20221;-80
2021/12/23 12:48:58;;;;;;;31.43;23.60;;;;;;;0.96;70.25;99462.13;5057095;22;20225;-80
2021/12/23 12:51:33;;;;;;;29.67;22.47;;;;;;;1.00;70.09;99451.09;5069061;28;20268;-80
2021/12/23 12:54:05;;;;;;;30.17;22.80;;;;;;;1.00;70.92;99456.38;5085959;28;20224;-80
2021/12/23 12:56:44;;;;;;;29.13;23.40;;;;;;;1.02;71.19;99445.66;5068915;28;20248;-80
2021/12/23 12:59:38;;;;;;;29.30;22.77;;;;;;;1.06;71.06;99454.91;5043785;23;20226;-80
2021/12/23 13:02:45;;;;;;;29.97;22.53;;;;;;;0.96;72.00;99443.66;5074450;23;20279;-81